createdAt,value
2022-08-12T00:02:04.276Z,24.74
2022-08-12T00:04:46.891Z,24.70
2022-08-12T00:07:33.862Z,24.68
2022-08-12T00:10:19.660Z,24.65
2022-08-12T00:13:05.147Z,24.60
2022-08-12T00:15:52.544Z,24.57
2022-08-12T00:18:37.779Z,24.53
2022-08-12T00:21:23.640Z,24.48
2022-08-12T00:24:11.622Z,24.44
2022-08-12T00:26:59.154Z,24.40
2022-08-12T00:29:48.017Z,24.36
2022-08-12T00:32:36.694Z,24.32
2022-08-12T00:35:30.784Z,24.28
2022-08-12T00:38:22.551Z,24.24
2022-08-12T00:41:08.395Z,24.18
2022-08-12T00:43:37.437Z,24.13
2022-08-12T00:46:24.009Z,24.09
2022-08-12T00:48:53.517Z,24.04
2022-08-12T00:51:21.366Z,24.01
2022-08-12T00:53:50.290Z,23.98
2022-08-12T00:56:20.161Z,23.94
2022-08-12T00:58:50.935Z,23.90
2022-08-12T01:01:19.405Z,23.86
2022-08-12T01:04:07.327Z,23.84
2022-08-12T01:06:55.936Z,23.80
2022-08-12T01:09:41.769Z,23.75
2022-08-12T01:12:10.727Z,23.71
2022-08-12T01:14:40.934Z,23.67
2022-08-12T01:17:09.876Z,23.63
2022-08-12T01:19:38.204Z,23.59
2022-08-12T01:22:21.146Z,23.57
2022-08-12T01:24:59.191Z,23.52
2022-08-12T01:27:28.470Z,23.49
2022-08-12T01:29:58.114Z,23.46
2022-08-12T01:32:27.992Z,23.43
2022-08-12T01:34:58.944Z,23.39
2022-08-12T01:37:27.637Z,23.37
2022-08-12T01:40:31.554Z,23.33
2022-08-12T01:42:48.269Z,23.29
2022-08-12T01:45:17.652Z,23.27
2022-08-12T01:47:57.995Z,23.23
2022-08-12T01:50:27.634Z,23.19
2022-08-12T01:53:01.859Z,23.15
2022-08-12T01:55:33.401Z,23.13
2022-08-12T01:58:07.238Z,23.08
2022-08-12T02:00:54.947Z,23.06
2022-08-12T02:04:07.842Z,23.01
2022-08-12T02:07:00.165Z,22.97
2022-08-12T02:09:51.765Z,22.94
2022-08-12T02:12:31.419Z,22.88
2022-08-12T02:15:04.732Z,22.85
2022-08-12T02:17:55.568Z,22.83
2022-08-12T02:20:51.076Z,22.80
2022-08-12T02:23:18.423Z,22.76
2022-08-12T02:25:47.936Z,22.73
2022-08-12T02:28:17.457Z,22.70
2022-08-12T02:30:45.299Z,22.67
2022-08-12T02:33:13.385Z,22.63
2022-08-12T02:35:41.465Z,22.62
2022-08-12T02:38:11.104Z,22.58
2022-08-12T02:40:40.511Z,22.55
2022-08-12T02:43:13.400Z,22.52
2022-08-12T02:45:45.447Z,22.50
2022-08-12T02:48:17.111Z,22.47
2022-08-12T02:50:48.442Z,22.43
2022-08-12T02:53:16.753Z,22.41
2022-08-12T02:55:45.797Z,22.38
2022-08-12T02:58:15.076Z,22.36
2022-08-12T03:00:45.375Z,22.33
2022-08-12T03:03:14.482Z,22.29
2022-08-12T03:05:46.402Z,22.25
2022-08-12T03:08:31.497Z,22.21
2022-08-12T03:11:03.330Z,22.17
2022-08-12T03:13:33.471Z,22.14
2022-08-12T03:16:03.089Z,22.11
2022-08-12T03:18:32.132Z,22.09
2022-08-12T03:21:01.535Z,22.05
2022-08-12T03:23:31.197Z,22.04
2022-08-12T03:26:02.056Z,22.01
2022-08-12T03:28:49.069Z,21.97
2022-08-12T03:31:19.417Z,21.95
2022-08-12T03:34:01.827Z,21.92
2022-08-12T03:36:33.823Z,21.88
2022-08-12T03:41:58.754Z,21.82
2022-08-12T03:44:47.359Z,21.81
2022-08-12T03:47:38.100Z,21.76
2022-08-12T03:50:23.882Z,21.72
2022-08-12T03:53:09.515Z,21.68
2022-08-12T03:55:55.127Z,21.64
2022-08-12T03:58:42.026Z,21.59
2022-08-12T04:01:09.746Z,21.55
2022-08-12T04:03:56.116Z,21.52
2022-08-12T04:06:34.991Z,21.49
2022-08-12T04:09:15.586Z,21.46
2022-08-12T04:12:03.497Z,21.44
2022-08-12T04:14:33.343Z,21.40
2022-08-12T04:17:01.477Z,21.37
2022-08-12T04:19:30.285Z,21.33
2022-08-12T04:22:01.188Z,21.30
2022-08-12T04:24:31.107Z,21.26
2022-08-12T04:26:59.240Z,21.23
2022-08-12T04:30:21.482Z,21.19
2022-08-12T04:32:16.849Z,21.17
2022-08-12T04:34:44.988Z,21.13
2022-08-12T04:37:13.419Z,21.11
2022-08-12T04:39:41.293Z,21.09
2022-08-12T04:42:09.110Z,21.07
2022-08-12T04:44:36.781Z,21.05
2022-08-12T04:47:04.601Z,21.01
2022-08-12T04:49:35.798Z,21.00
2022-08-12T04:52:04.187Z,20.97
2022-08-12T04:54:33.544Z,20.95
2022-08-12T04:57:03.145Z,20.93
2022-08-12T04:59:47.613Z,20.90
2022-08-12T05:02:20.912Z,20.89
2022-08-12T05:04:52.352Z,20.88
2022-08-12T05:07:20.403Z,20.87
2022-08-12T05:09:59.287Z,20.87
2022-08-12T05:12:31.210Z,20.86
2022-08-12T05:14:59.214Z,20.86
2022-08-12T05:17:27.279Z,20.86
2022-08-12T05:19:57.935Z,20.86
2022-08-12T05:22:26.073Z,20.86
2022-08-12T05:24:53.866Z,20.88
2022-08-12T05:27:23.621Z,20.88
2022-08-12T05:30:07.469Z,20.92
2022-08-12T05:32:37.185Z,20.98
2022-08-12T05:35:08.052Z,21.04
2022-08-12T05:37:35.953Z,21.13
2022-08-12T05:40:10.533Z,21.23
2022-08-12T05:42:39.397Z,21.35
2022-08-12T05:45:07.625Z,21.48
2022-08-12T05:47:52.634Z,21.61
2022-08-12T05:50:23.083Z,21.76
2022-08-12T05:52:50.722Z,21.88
2022-08-12T05:55:24.197Z,22.00
2022-08-12T05:57:55.366Z,22.08
2022-08-12T06:00:25.804Z,22.15
2022-08-12T06:02:57.075Z,22.22
2022-08-12T06:05:26.597Z,22.28
2022-08-12T06:08:01.330Z,22.33
2022-08-12T06:10:32.034Z,22.35
2022-08-12T06:13:00.393Z,22.37
2022-08-12T06:15:28.293Z,22.39
2022-08-12T06:17:56.370Z,22.41
2022-08-12T06:20:28.753Z,22.44
2022-08-12T06:22:58.873Z,22.46
2022-08-12T06:25:29.339Z,22.49
2022-08-12T06:28:06.517Z,22.52
2022-08-12T06:30:39.543Z,22.55
2022-08-12T06:33:22.518Z,22.59
2022-08-12T06:35:57.417Z,22.66
2022-08-12T06:38:28.604Z,22.75
2022-08-12T06:41:15.163Z,22.86
2022-08-12T06:44:04.933Z,23.01
2022-08-12T06:46:32.004Z,23.18
2022-08-12T06:49:00.241Z,23.36
2022-08-12T06:51:29.550Z,23.58
2022-08-12T06:53:58.849Z,23.80
2022-08-12T06:56:45.889Z,24.05
2022-08-12T06:59:15.599Z,24.35
2022-08-12T07:01:49.620Z,24.63
2022-08-12T07:04:36.403Z,24.92
2022-08-12T07:07:06.382Z,25.22
2022-08-12T07:09:59.487Z,25.49
2022-08-12T07:12:26.581Z,25.80
2022-08-12T07:14:55.590Z,26.07
2022-08-12T07:17:23.291Z,26.32
2022-08-12T07:19:52.083Z,26.57
2022-08-12T07:22:21.996Z,26.78
2022-08-12T07:25:11.532Z,26.99
2022-08-12T07:27:40.640Z,27.21
2022-08-12T07:30:09.798Z,27.38
2022-08-12T07:32:37.783Z,27.54
2022-08-12T07:35:05.788Z,27.68
2022-08-12T07:37:35.116Z,27.80
2022-08-12T07:40:04.708Z,27.92
2022-08-12T07:42:32.411Z,28.03
2022-08-12T07:45:00.368Z,28.11
2022-08-12T07:47:28.396Z,28.19
2022-08-12T07:50:03.534Z,28.27
2022-08-12T07:52:34.003Z,28.34
2022-08-12T07:55:01.818Z,28.40
2022-08-12T07:57:32.566Z,28.46
2022-08-12T08:00:04.836Z,28.54
2022-08-12T08:02:37.029Z,28.61
2022-08-12T08:05:05.881Z,28.67
2022-08-12T08:07:33.611Z,28.74
2022-08-12T08:10:02.269Z,28.83
2022-08-12T08:12:48.850Z,28.89
2022-08-12T08:15:17.490Z,29.00
2022-08-12T08:17:59.701Z,29.09
2022-08-12T08:20:29.468Z,29.19
2022-08-12T08:22:58.168Z,29.28
2022-08-12T08:25:36.969Z,29.37
2022-08-12T08:28:08.125Z,29.48
2022-08-12T08:30:38.265Z,29.58
2022-08-12T08:33:21.232Z,29.67
2022-08-12T08:35:51.080Z,29.80
2022-08-12T08:38:32.453Z,29.90
2022-08-12T08:42:15.369Z,30.00
2022-08-12T08:44:10.883Z,30.11
2022-08-12T08:46:39.308Z,30.21
2022-08-12T08:49:07.266Z,30.28
2022-08-12T08:51:35.271Z,30.37
2022-08-12T08:54:03.086Z,30.44
2022-08-12T08:56:30.884Z,30.50
2022-08-12T08:58:58.803Z,30.55
2022-08-12T09:01:31.155Z,30.62
2022-08-12T09:05:12.941Z,30.69
2022-08-12T09:06:56.835Z,30.77
2022-08-12T09:09:28.359Z,30.84
2022-08-12T09:12:27.317Z,30.93
2022-08-12T09:14:55.406Z,31.00
2022-08-12T09:17:24.410Z,31.08
2022-08-12T09:22:39.836Z,31.20
2022-08-12T09:25:07.636Z,31.26
2022-08-12T09:30:41.757Z,31.36
2022-08-12T09:33:18.944Z,31.39
2022-08-12T09:36:04.789Z,31.40
2022-08-12T09:38:35.217Z,31.40
2022-08-12T09:42:33.315Z,31.41
2022-08-12T09:44:38.541Z,31.43
2022-08-12T09:46:58.963Z,31.46
2022-08-12T09:49:37.192Z,31.49
2022-08-12T09:52:11.607Z,31.53
2022-08-12T09:54:42.651Z,31.57
2022-08-12T09:58:08.270Z,31.63
2022-08-12T10:00:14.575Z,31.69
2022-08-12T10:03:02.714Z,31.75
2022-08-12T10:06:19.605Z,31.82
2022-08-12T10:08:27.404Z,31.88
2022-08-12T10:11:20.538Z,31.93
2022-08-12T10:13:49.975Z,32.00
2022-08-12T10:16:22.702Z,32.06
2022-08-12T10:18:52.821Z,32.12
2022-08-12T10:21:23.706Z,32.15
2022-08-12T10:23:56.623Z,32.20
2022-08-12T10:26:42.697Z,32.23
2022-08-12T10:30:38.642Z,32.26
2022-08-12T10:33:02.439Z,32.29
2022-08-12T10:35:09.812Z,32.33
2022-08-12T10:38:38.567Z,32.38
2022-08-12T10:40:31.891Z,32.43
2022-08-12T10:43:17.873Z,32.47
2022-08-12T10:45:49.179Z,32.51
2022-08-12T10:48:21.979Z,32.56
2022-08-12T10:51:02.525Z,32.59
2022-08-12T10:53:45.019Z,32.62
2022-08-12T10:56:15.301Z,32.65
2022-08-12T10:58:46.320Z,32.67
2022-08-12T11:03:02.330Z,32.67
2022-08-12T11:04:27.160Z,32.68
2022-08-12T11:07:07.902Z,32.68
2022-08-12T11:10:00.134Z,32.69
2022-08-12T11:12:57.155Z,32.70
2022-08-12T11:15:20.971Z,32.71
2022-08-12T11:17:55.648Z,32.71
2022-08-12T11:20:24.589Z,32.72
2022-08-12T11:22:59.526Z,32.75
2022-08-12T11:25:56.127Z,32.77
2022-08-12T11:28:17.604Z,32.79
2022-08-12T11:31:01.372Z,32.82
2022-08-12T11:34:04.502Z,32.83
2022-08-12T11:36:17.293Z,32.85
2022-08-12T11:38:50.508Z,32.86
2022-08-12T11:41:27.975Z,32.86
2022-08-12T11:43:59.713Z,32.88
2022-08-12T11:46:51.383Z,32.88
2022-08-12T11:49:30.668Z,32.88
2022-08-12T11:52:01.067Z,32.88
2022-08-12T11:54:29.779Z,32.87
2022-08-12T11:57:01.923Z,32.86
2022-08-12T12:02:02.814Z,32.85
2022-08-12T12:02:20.237Z,32.83
2022-08-12T12:04:52.461Z,32.83
2022-08-12T12:07:33.683Z,32.83
2022-08-12T12:10:11.148Z,32.83
2022-08-12T12:12:41.559Z,32.85
2022-08-12T12:15:25.424Z,32.86
2022-08-12T12:18:05.165Z,32.88
2022-08-12T12:20:32.955Z,32.89
2022-08-12T12:23:00.605Z,32.91
2022-08-12T12:25:59.683Z,32.91
2022-08-12T12:28:36.538Z,32.92
2022-08-12T12:31:15.089Z,32.94
2022-08-12T12:33:58.369Z,32.97
2022-08-12T12:36:30.183Z,32.99
2022-08-12T12:39:00.281Z,33.01
2022-08-12T12:42:43.137Z,33.00
2022-08-12T12:44:38.608Z,33.01
2022-08-12T12:47:28.838Z,33.00
2022-08-12T12:49:53.539Z,33.02
2022-08-12T12:52:21.545Z,33.04
2022-08-12T12:54:57.514Z,33.07
2022-08-12T12:57:36.406Z,33.10
2022-08-12T13:00:16.569Z,33.13
2022-08-12T13:02:53.656Z,33.16
2022-08-12T13:05:27.960Z,33.18
2022-08-12T13:08:01.003Z,33.19
2022-08-12T13:10:32.168Z,33.21
2022-08-12T13:13:09.633Z,33.22
2022-08-12T13:15:58.972Z,33.22
2022-08-12T13:18:33.595Z,33.23
2022-08-12T13:21:02.450Z,33.24
2022-08-12T13:23:36.124Z,33.24
2022-08-12T13:26:04.576Z,33.24
2022-08-12T13:28:32.851Z,33.24
2022-08-12T13:31:02.354Z,33.25
2022-08-12T13:34:32.053Z,33.27
2022-08-12T13:36:20.369Z,33.28
2022-08-12T13:38:52.070Z,33.28
2022-08-12T13:41:33.633Z,33.29
2022-08-12T13:44:01.872Z,33.29
2022-08-12T13:46:30.876Z,33.29
2022-08-12T13:48:58.803Z,33.28
2022-08-12T13:51:26.975Z,33.27
2022-08-12T13:54:10.004Z,33.27
2022-08-12T13:56:41.654Z,33.25
2022-08-12T13:59:18.373Z,33.23
2022-08-12T14:01:54.437Z,33.21
2022-08-12T14:04:24.899Z,33.21
2022-08-12T14:06:54.068Z,33.18
2022-08-12T14:09:21.820Z,33.17
2022-08-12T14:11:59.029Z,33.15
2022-08-12T14:14:31.581Z,33.13
2022-08-12T14:17:09.994Z,33.10
2022-08-12T14:19:48.571Z,33.08
2022-08-12T14:22:26.096Z,33.04
2022-08-12T14:24:54.207Z,33.02
2022-08-12T14:28:04.470Z,33.01
2022-08-12T14:30:17.163Z,32.98
2022-08-12T14:32:53.351Z,32.97
2022-08-12T14:35:21.604Z,32.97
2022-08-12T14:37:58.150Z,32.96
2022-08-12T14:40:27.788Z,32.95
2022-08-12T14:42:57.037Z,32.93
2022-08-12T14:45:45.373Z,32.91
2022-08-12T14:48:15.125Z,32.89
2022-08-12T14:51:07.598Z,32.86
2022-08-12T14:57:05.766Z,32.78
2022-08-12T14:59:25.404Z,32.74
2022-08-12T15:01:54.696Z,32.70
2022-08-12T15:04:29.185Z,32.67
2022-08-12T15:06:58.125Z,32.64
2022-08-12T15:09:28.738Z,32.60
2022-08-12T15:12:03.092Z,32.57
2022-08-12T15:14:32.025Z,32.54
2022-08-12T15:17:00.217Z,32.51
2022-08-12T15:20:31.033Z,32.48
2022-08-12T15:22:38.341Z,32.44
2022-08-12T15:25:07.586Z,32.42
2022-08-12T15:28:20.408Z,32.40
2022-08-12T15:30:33.913Z,32.34
2022-08-12T15:33:03.215Z,32.30
2022-08-12T15:35:50.234Z,32.26
2022-08-12T15:38:22.229Z,32.21
2022-08-12T15:40:53.376Z,32.18
2022-08-12T15:43:51.744Z,32.14
2022-08-12T15:46:15.578Z,32.10
2022-08-12T15:48:46.757Z,32.05
2022-08-12T15:51:27.889Z,32.03
2022-08-12T15:54:33.723Z,31.96
2022-08-12T15:57:05.634Z,31.93
2022-08-12T16:00:00.070Z,31.88
2022-08-12T16:02:21.593Z,31.84
2022-08-12T16:04:51.447Z,31.81
2022-08-12T16:07:30.178Z,31.77
2022-08-12T16:10:08.702Z,31.73
2022-08-12T16:12:43.381Z,31.68
2022-08-12T16:15:22.783Z,31.64
2022-08-12T16:18:17.874Z,31.58
2022-08-12T16:20:40.761Z,31.53
2022-08-12T16:23:27.009Z,31.49
2022-08-12T16:26:14.409Z,31.44
2022-08-12T16:28:43.490Z,31.39
2022-08-12T16:31:18.564Z,31.34
2022-08-12T16:34:00.408Z,31.29
2022-08-12T16:36:29.304Z,31.25
2022-08-12T16:39:01.471Z,31.21
2022-08-12T16:41:38.191Z,31.18
2022-08-12T16:44:08.290Z,31.14
2022-08-12T16:46:36.196Z,31.10
2022-08-12T16:49:13.263Z,31.06
2022-08-12T16:51:46.911Z,31.03
2022-08-12T16:54:18.340Z,30.98
2022-08-12T16:56:54.502Z,30.96
2022-08-12T16:59:26.333Z,30.94
2022-08-12T17:02:18.120Z,30.91
2022-08-12T17:05:03.335Z,30.87
2022-08-12T17:07:36.614Z,30.84
2022-08-12T17:10:08.207Z,30.81
2022-08-12T17:12:37.568Z,30.77
2022-08-12T17:15:50.413Z,30.74
2022-08-12T17:18:15.237Z,30.70
2022-08-12T17:20:46.748Z,30.66
2022-08-12T17:23:15.785Z,30.63
2022-08-12T17:25:48.384Z,30.59
2022-08-12T17:28:16.965Z,30.55
2022-08-12T17:30:45.424Z,30.52
2022-08-12T17:33:25.305Z,30.48
2022-08-12T17:35:53.228Z,30.44
2022-08-12T17:38:21.244Z,30.42
2022-08-12T17:40:51.293Z,30.40
2022-08-12T17:43:54.578Z,30.37
2022-08-12T17:46:13.041Z,30.33
2022-08-12T17:48:55.196Z,30.29
2022-08-12T17:51:25.240Z,30.27
2022-08-12T17:54:10.566Z,30.23
2022-08-12T17:56:43.221Z,30.19
2022-08-12T17:59:13.065Z,30.15
2022-08-12T18:01:45.121Z,30.12
2022-08-12T18:04:20.726Z,30.09
2022-08-12T18:06:50.950Z,30.04
2022-08-12T18:09:19.696Z,30.01
2022-08-12T18:12:08.379Z,29.97
2022-08-12T18:14:37.301Z,29.93
2022-08-12T18:17:10.187Z,29.88
2022-08-12T18:20:03.903Z,29.85
2022-08-12T18:22:30.754Z,29.82
2022-08-12T18:26:12.544Z,29.77
2022-08-12T18:28:15.706Z,29.72
2022-08-12T18:30:53.055Z,29.68
2022-08-12T18:33:25.843Z,29.66
2022-08-12T18:35:55.651Z,29.63
2022-08-12T18:38:25.823Z,29.59
2022-08-12T18:41:21.826Z,29.56
2022-08-12T18:44:00.031Z,29.51
2022-08-12T18:46:45.823Z,29.49
2022-08-12T18:49:19.869Z,29.45
2022-08-12T18:51:55.255Z,29.42
2022-08-12T18:54:25.616Z,29.39
2022-08-12T18:56:53.993Z,29.34
2022-08-12T19:00:01.449Z,29.32
2022-08-12T19:02:20.585Z,29.27
2022-08-12T19:04:53.496Z,29.23
2022-08-12T19:07:22.706Z,29.20
2022-08-12T19:09:57.993Z,29.15
2022-08-12T19:12:56.930Z,29.13
2022-08-12T19:15:29.979Z,29.07
2022-08-12T19:18:01.047Z,29.03
2022-08-12T19:20:31.611Z,28.98
2022-08-12T19:23:07.192Z,28.93
2022-08-12T19:26:01.389Z,28.91
2022-08-12T19:28:30.400Z,28.86
2022-08-12T19:31:56.355Z,28.82
2022-08-12T19:34:37.676Z,28.77
2022-08-12T19:37:10.860Z,28.70
2022-08-12T19:40:09.919Z,28.66
2022-08-12T19:42:28.166Z,28.62
2022-08-12T19:44:59.643Z,28.57
2022-08-12T19:47:31.190Z,28.52
2022-08-12T19:50:11.223Z,28.46
2022-08-12T19:52:40.809Z,28.42
2022-08-12T19:55:11.626Z,28.36
2022-08-12T19:58:03.337Z,28.32
2022-08-12T20:00:36.096Z,28.27
2022-08-12T20:03:06.463Z,28.22
2022-08-12T20:06:05.565Z,28.17
2022-08-12T20:08:31.688Z,28.13
2022-08-12T20:12:11.142Z,28.06
2022-08-12T20:14:01.170Z,28.01
2022-08-12T20:16:51.730Z,27.97
2022-08-12T20:19:20.739Z,27.91
2022-08-12T20:21:49.514Z,27.86
2022-08-12T20:24:19.122Z,27.82
2022-08-12T20:26:48.306Z,27.77
2022-08-12T20:29:16.815Z,27.72
2022-08-12T20:31:45.378Z,27.68
2022-08-12T20:34:13.289Z,27.63
2022-08-12T20:36:44.279Z,27.58
2022-08-12T20:39:37.394Z,27.54
2022-08-12T20:42:07.095Z,27.48
2022-08-12T20:44:37.814Z,27.43
2022-08-12T20:47:16.632Z,27.38
2022-08-12T20:49:55.831Z,27.34
2022-08-12T20:52:30.501Z,27.30
2022-08-12T20:55:01.901Z,27.24
2022-08-12T20:57:38.235Z,27.20
2022-08-12T21:00:22.538Z,27.14
2022-08-12T21:03:15.866Z,27.10
2022-08-12T21:06:12.940Z,27.05
2022-08-12T21:08:43.747Z,27.00
2022-08-12T21:11:11.555Z,26.96
2022-08-12T21:13:41.901Z,26.91
2022-08-12T21:16:10.437Z,26.88
2022-08-12T21:18:38.438Z,26.83
2022-08-12T21:21:15.725Z,26.78
2022-08-12T21:23:52.402Z,26.73
2022-08-12T21:26:24.358Z,26.69
2022-08-12T21:29:01.738Z,26.64
2022-08-12T21:32:40.537Z,26.59
2022-08-12T21:34:26.359Z,26.54
2022-08-12T21:36:59.158Z,26.49
2022-08-12T21:39:35.636Z,26.44
2022-08-12T21:42:06.553Z,26.39
2022-08-12T21:45:46.701Z,26.37
2022-08-12T21:47:23.245Z,26.33
2022-08-12T21:50:02.445Z,26.29
2022-08-12T21:52:34.881Z,26.25
2022-08-12T21:55:08.635Z,26.21
2022-08-12T21:57:51.113Z,26.18
2022-08-12T22:00:23.898Z,26.13
2022-08-12T22:04:01.285Z,26.09
2022-08-12T22:06:26.392Z,26.05
2022-08-12T22:09:09.069Z,26.01
2022-08-12T22:11:49.360Z,25.98
2022-08-12T22:14:25.034Z,25.94
2022-08-12T22:16:53.879Z,25.92
2022-08-12T22:19:22.926Z,25.89
2022-08-12T22:21:53.219Z,25.85
2022-08-12T22:24:26.347Z,25.83
2022-08-12T22:27:14.303Z,25.79
2022-08-12T22:30:07.265Z,25.76
2022-08-12T22:32:36.587Z,25.72
2022-08-12T22:35:29.070Z,25.68
2022-08-12T22:38:10.994Z,25.64
2022-08-12T22:40:39.711Z,25.59
2022-08-12T22:43:30.585Z,25.56
2022-08-12T22:46:15.800Z,25.50
2022-08-12T22:48:50.683Z,25.46
2022-08-12T22:51:24.056Z,25.42
2022-08-12T22:53:54.217Z,25.39
2022-08-12T22:56:30.819Z,25.37
2022-08-12T22:59:03.062Z,25.32
2022-08-12T23:01:52.641Z,25.30
2022-08-12T23:04:27.539Z,25.26
2022-08-12T23:06:58.382Z,25.23
2022-08-12T23:09:44.857Z,25.20
2022-08-12T23:12:37.422Z,25.17
2022-08-12T23:15:10.020Z,25.14
2022-08-12T23:17:40.879Z,25.11
2022-08-12T23:20:11.253Z,25.10
2022-08-12T23:22:40.252Z,25.07
2022-08-12T23:25:19.131Z,25.04
2022-08-12T23:28:30.260Z,25.02
2022-08-12T23:31:04.349Z,25.00
2022-08-12T23:34:01.471Z,24.97
2022-08-12T23:36:31.442Z,24.95
2022-08-12T23:39:02.020Z,24.93
2022-08-12T23:41:29.760Z,24.91
2022-08-12T23:44:19.749Z,24.89
2022-08-12T23:46:58.703Z,24.86
2022-08-12T23:49:58.128Z,24.84
2022-08-12T23:52:15.401Z,24.81
2022-08-12T23:54:45.888Z,24.80
2022-08-12T23:57:26.573Z,24.78
